Date,TemperatureHighF,TemperatureAvgF,TemperatureLowF,DewpointHighF,DewpointAvgF,DewpointLowF,HumidityHigh,HumidityAvg,HumidityLow,PressureMaxIn,PressureMinIn,WindSpeedMaxMPH,WindSpeedAvgMPH,GustSpeedMaxMPH,PrecipitationSumIn
2014-1-1,14,12,8,-100,-100,-100,0,0,100,0.00,40.00,0,-999,0,0.00
2014-1-2,13,7,-2,-100,-100,-100,0,0,100,0.00,40.00,0,-999,0,0.00
2014-1-3,22,5,-10,-100,-100,-100,0,0,100,0.00,40.00,0,-999,0,0.00
2014-1-4,31,26,21,-100,-100,-100,0,0,100,0.00,40.00,0,-999,0,0.00
2014-1-5,21,10,-5,-100,-100,-100,0,0,100,0.00,40.00,0,-999,0,0.00
2014-1-6,-7,-11,-16,-100,-100,-100,0,0,100,0.00,40.00,0,-999,0,0.00
2014-1-7,10,-1,-8,-100,-100,-100,0,0,100,0.00,40.00,0,-999,0,0.00
2014-1-8,9,3,-4,-100,-100,-100,0,0,100,0.00,40.00,0,-999,0,0.00
2014-1-9,27,9,-3,-100,-100,-100,0,0,100,0.00,40.00,0,-999,0,0.00
2014-1-10,37,32,27,-100,-100,-100,0,0,100,0.00,40.00,0,-999,0,0.00
2014-1-11,36,32,29,-100,-100,-100,0,0,100,0.00,40.00,0,-999,0,0.00
2014-1-12,43,34,25,-100,-100,-100,0,0,100,0.00,40.00,0,-999,0,0.00
2014-1-13,38,32,27,-100,-100,-100,0,0,100,0.00,40.00,0,-999,0,0.00
2014-1-14,33,28,21,-100,-100,-100,0,0,100,0.00,40.00,0,-999,0,0.00
2014-1-15,23,14,8,-100,-100,-100,0,0,100,0.00,40.00,0,-999,0,0.00
2014-1-16,37,24,11,-100,-100,-100,0,0,100,0.00,40.00,0,-999,0,0.00
2014-1-17,14,11,7,-100,-100,-100,0,0,100,0.00,40.00,0,-999,0,0.00
2014-1-18,25,14,5,-100,-100,-100,0,0,100,0.00,40.00,0,-999,0,0.00
2014-1-19,40,27,8,-100,-100,-100,0,0,100,0.00,40.00,0,-999,0,0.00
2014-1-20,36,28,16,-100,-100,-100,0,0,100,0.00,40.00,0,-999,0,0.00
2014-1-21,12,7,3,-100,-100,-100,0,0,100,0.00,40.00,0,-999,0,0.00
2014-1-22,14,10,6,-100,-100,-100,0,0,100,0.00,40.00,0,-999,0,0.00
2014-1-23,-1,-4,-7,-100,-100,-100,0,0,100,0.00,40.00,0,-999,0,0.00
2014-1-24,31,17,-6,-100,-100,-100,0,0,100,0.00,40.00,0,-999,0,0.00
2014-1-25,33,19,5,-100,-100,-100,0,0,100,0.00,40.00,0,-999,0,0.00
2014-1-26,33,15,3,-100,-100,-100,0,0,100,0.00,40.00,0,-999,0,0.00
2014-1-27,-1,-5,-8,-100,-100,-100,0,0,100,0.00,40.00,0,-999,0,0.00
2014-1-28,9,-1,-10,-100,-100,-100,0,0,100,0.00,40.00,0,-999,0,0.00
2014-1-29,29,13,-6,-100,-100,-100,0,0,100,0.00,40.00,0,-999,0,0.00
2014-1-30,32,25,16,-100,-100,-100,0,0,100,0.00,40.00,0,-999,0,0.00
2014-1-31,16,12,6,-100,-100,-100,0,0,100,0.00,40.00,0,-999,0,0.00
2014-2-1,23,19,14,-100,-100,-100,0,0,100,0.00,40.00,0,-999,0,0.00
2014-2-2,15,5,-8,-100,-100,-100,0,0,100,0.00,40.00,0,-999,0,0.00
2014-2-3,21,5,-14,-100,-100,-100,0,0,100,0.00,40.00,0,-999,0,0.00
2014-2-4,21,15,7,-100,-100,-100,0,0,100,0.00,40.00,0,-999,0,0.00
2014-2-5,18,14,-1,-100,-100,-100,0,0,100,0.00,40.00,0,-999,0,0.00
2014-2-6,5,-4,-9,-100,-100,-100,0,0,100,0.00,40.00,0,-999,0,0.00
2014-2-7,13,1,-10,-100,-100,-100,0,0,100,0.00,40.00,0,-999,0,0.00
2014-2-8,18,14,8,-100,-100,-100,0,0,100,0.00,40.00,0,-999,0,0.00
2014-2-9,11,5,-7,-100,-100,-100,0,0,100,0.00,40.00,0,-999,0,0.00
2014-2-10,3,-8,-14,-100,-100,-100,0,0,100,0.00,40.00,0,-999,0,0.00
2014-2-11,17,-6,-18,-100,-100,-100,0,0,100,0.00,40.00,0,-999,0,0.00
2014-2-12,29,16,-1,-100,-100,-100,0,0,100,0.00,40.00,0,-999,0,0.00
2014-2-13,36,24,14,-100,-100,-100,0,0,100,0.00,40.00,0,-999,0,0.00
2014-2-14,18,12,3,-100,-100,-100,0,0,100,0.00,40.00,0,-999,0,0.00
2014-2-15,21,14,2,-100,-100,-100,0,0,100,0.00,40.00,0,-999,0,0.00
2014-2-16,27,20,15,-100,-100,-100,0,0,100,0.00,40.00,0,-999,0,0.00
2014-2-17,33,26,22,-100,-100,-100,0,0,100,0.00,40.00,0,-999,0,0.00
2014-2-18,44,32,14,-100,-100,-100,0,0,100,0.00,40.00,0,-999,0,0.00
2014-2-19,44,35,27,-100,-100,-100,0,0,100,0.00,40.00,0,-999,0,0.00
2014-2-20,40,36,35,-100,-100,-100,0,0,100,0.00,40.00,0,-999,0,0.00
2014-2-21,35,28,22,-100,-100,-100,0,0,100,0.00,40.00,0,-999,0,0.00
2014-2-22,28,23,16,-100,-100,-100,0,0,100,0.00,40.00,0,-999,0,0.00
2014-2-23,21,17,14,-100,-100,-100,0,0,100,0.00,40.00,0,-999,0,0.00
2014-2-24,19,15,10,-100,-100,-100,0,0,100,0.00,40.00,0,-999,0,0.00
2014-2-25,14,10,5,-100,-100,-100,0,0,100,0.00,40.00,0,-999,0,0.00
2014-2-26,18,8,-3,-100,-100,-100,0,0,100,0.00,40.00,0,-999,0,0.00
2014-2-27,17,6,1,-100,-100,-100,0,0,100,0.00,40.00,0,-999,0,0.00
2014-2-28,34,19,3,-100,-100,-100,0,0,100,0.00,40.00,0,-999,0,0.00
2014-3-1,25,16,8,-100,-100,-100,0,0,100,0.00,40.00,0,-999,0,0.00
2014-3-2,8,4,-3,-100,-100,-100,0,0,100,0.00,40.00,0,-999,0,0.00
2014-3-3,10,-2,-13,-100,-100,-100,0,0,100,0.00,40.00,0,-999,0,0.00
2014-3-4,31,20,11,-100,-100,-100,0,0,100,0.00,40.00,0,-999,0,0.00
2014-3-5,27,22,19,-100,-100,-100,0,0,100,0.00,40.00,0,-999,0,0.00
2014-3-6,35,19,9,-100,-100,-100,0,0,100,0.00,40.00,0,-999,0,0.00
2014-3-7,45,35,17,-100,-100,-100,0,0,100,0.00,40.00,0,-999,0,0.00
2014-3-8,36,32,24,-100,-100,-100,0,0,100,0.00,40.00,0,-999,0,0.00
2014-3-9,42,34,20,-100,-100,-100,0,0,100,0.00,40.00,0,-999,0,0.00
2014-3-10,58,46,39,-100,-100,-100,0,0,100,0.00,40.00,0,-999,0,0.00
2014-3-11,48,40,34,-100,-100,-100,0,0,100,0.00,40.00,0,-999,0,0.00
2014-3-12,36,32,25,-100,-100,-100,0,0,100,0.00,40.00,0,-999,0,0.00
2014-3-13,49,33,22,-100,-100,-100,0,0,100,0.00,40.00,0,-999,0,0.00
2014-3-14,50,43,36,-100,-100,-100,0,0,100,0.00,40.00,0,-999,0,0.00
2014-3-15,46,36,30,-100,-100,-100,0,0,100,0.00,40.00,0,-999,0,0.00
2014-3-16,33,26,21,-100,-100,-100,0,0,100,0.00,40.00,0,-999,0,0.00
2014-3-17,43,30,17,-100,-100,-100,0,0,100,0.00,40.00,0,-999,0,0.00
2014-3-18,52,38,31,-100,-100,-100,0,0,100,0.00,40.00,0,-999,0,0.00
2014-3-19,37,35,33,-100,-100,-100,0,0,100,0.00,40.00,0,-999,0,0.00
2014-3-20,51,37,28,-100,-100,-100,0,0,100,0.00,40.00,0,-999,0,0.00
2014-3-21,60,42,32,-100,-100,-100,0,0,100,0.00,40.00,0,-999,0,0.00
2014-3-22,39,32,25,-100,-100,-100,0,0,100,0.00,40.00,0,-999,0,0.00
2014-3-23,32,25,16,-100,-100,-100,0,0,100,0.00,40.00,0,-999,0,0.00
2014-3-24,39,28,19,-100,-100,-100,0,0,100,0.00,40.00,0,-999,0,0.00
2014-3-25,28,23,18,-100,-100,-100,0,0,100,0.00,40.00,0,-999,0,0.00
2014-3-26,47,31,17,-100,-100,-100,0,0,100,0.00,40.00,0,-999,0,0.00
2014-3-27,51,45,36,-100,-100,-100,0,0,100,0.00,40.00,0,-999,0,0.00
2014-3-28,44,39,36,-100,-100,-100,0,0,100,0.00,40.00,0,-999,0,0.00
2014-3-29,53,40,34,-100,-100,-100,0,0,100,0.00,40.00,0,-999,0,0.00
2014-3-30,66,49,30,-100,-100,-100,0,0,100,0.00,40.00,0,-999,0,0.00
2014-3-31,70,56,45,-100,-100,-100,0,0,100,0.00,40.00,0,-999,0,0.00
2014-4-1,47,37,27,-100,-100,-100,0,0,100,0.00,40.00,0,-999,0,0.00
2014-4-2,54,42,29,-100,-100,-100,0,0,100,0.00,40.00,0,-999,0,0.00
2014-4-3,44,41,38,-100,-100,-100,0,0,100,0.00,40.00,0,-999,0,0.00
2014-4-4,42,38,36,-100,-100,-100,0,0,100,0.00,40.00,0,-999,0,0.00
2014-4-5,56,41,26,-100,-100,-100,0,0,100,0.00,40.00,0,-999,0,0.00
2014-4-6,64,47,32,-100,-100,-100,0,0,100,0.00,40.00,0,-999,0,0.00
2014-4-7,63,50,38,-100,-100,-100,0,0,100,0.00,40.00,0,-999,0,0.00
2014-4-8,62,47,36,-100,-100,-100,0,0,100,0.00,40.00,0,-999,0,0.00
2014-4-9,69,48,30,-100,-100,-100,0,0,100,0.00,40.00,0,-999,0,0.00
2014-4-10,67,57,44,-100,-100,-100,0,0,100,0.00,40.00,0,-999,0,0.00
2014-4-11,73,56,33,-100,-100,-100,0,0,100,0.00,40.00,0,-999,0,0.00
2014-4-12,83,66,50,-100,-100,-100,0,0,100,0.00,40.00,0,-999,0,0.00
2014-4-13,69,60,49,-100,-100,-100,0,0,100,0.00,40.00,0,-999,0,0.00
2014-4-14,47,38,32,-100,-100,-100,0,0,100,0.00,40.00,0,-999,0,0.00
2014-4-15,43,33,24,-100,-100,-100,0,0,100,0.00,40.00,0,-999,0,0.00
2014-4-16,59,45,30,-100,-100,-100,0,0,100,0.00,40.00,0,-999,0,0.00
2014-4-17,58,48,38,-100,-100,-100,0,0,100,0.00,40.00,0,-999,0,0.00
2014-4-18,68,39,28,-100,-100,-100,0,0,100,0.00,40.00,0,-999,0,0.00
2014-4-19,77,54,38,-100,-100,-100,0,0,100,0.00,40.00,0,-999,0,0.00
2014-4-20,86,67,48,-100,-100,-100,0,0,100,0.00,40.00,0,-999,0,0.00
2014-4-21,70,63,55,-100,-100,-100,0,0,100,0.00,40.00,0,-999,0,0.00
2014-4-22,64,50,40,-100,-100,-100,0,0,100,0.00,40.00,0,-999,0,0.00
2014-4-23,59,46,36,-100,-100,-100,0,0,100,0.00,40.00,0,-999,0,0.00
2014-4-24,64,52,43,-100,-100,-100,0,0,100,0.00,40.00,0,-999,0,0.00
2014-4-25,73,55,40,-100,-100,-100,0,0,100,0.00,40.00,0,-999,0,0.00
2014-4-26,73,57,45,-100,-100,-100,0,0,100,0.00,40.00,0,-999,0,0.00
2014-4-27,73,53,43,-100,-100,-100,0,0,100,0.00,40.00,0,-999,0,0.00
2014-4-28,58,53,47,-100,-100,-100,0,0,100,0.00,40.00,0,-999,0,0.00
2014-4-29,56,52,50,-100,-100,-100,0,0,100,0.00,40.00,0,-999,0,0.00
2014-4-30,51,44,39,-100,-100,-100,0,0,100,0.00,40.00,0,-999,0,0.00
2014-5-1,50,45,41,-100,-100,-100,0,0,100,0.00,40.00,0,-999,0,0.00
2014-5-2,62,51,44,-100,-100,-100,0,0,100,0.00,40.00,0,-999,0,0.00
2014-5-3,71,58,43,-100,-100,-100,0,0,100,0.00,40.00,0,-999,0,0.00
2014-5-4,64,54,45,-100,-100,-100,0,0,100,0.00,40.00,0,-999,0,0.00
2014-5-5,71,57,47,-100,-100,-100,0,0,100,0.00,40.00,0,-999,0,0.00
2014-5-6,77,59,44,-100,-100,-100,0,0,100,0.00,40.00,0,-999,0,0.00
2014-5-13,54,51,47,-100,-100,-100,0,0,100,0.00,40.00,0,-999,0,0.00
2014-5-14,58,50,42,-100,-100,-100,0,0,100,0.00,40.00,0,-999,0,0.00
2014-5-15,62,51,46,-100,-100,-100,0,0,100,0.00,40.00,0,-999,0,0.00
2014-5-16,54,46,40,-100,-100,-100,0,0,100,0.00,40.00,0,-999,0,0.00
2014-5-17,64,51,38,-100,-100,-100,0,0,100,0.00,40.00,0,-999,0,0.00
2014-5-18,75,60,43,-100,-100,-100,0,0,100,0.00,40.00,0,-999,0,0.00
2014-5-19,77,64,52,-100,-100,-100,0,0,100,0.00,40.00,0,-999,0,0.00
2014-5-20,91,75,66,-100,-100,-100,0,0,100,0.00,40.00,0,-999,0,0.00
2014-5-21,89,76,62,-100,-100,-100,0,0,100,0.00,40.00,0,-999,0,0.00
2014-5-22,73,63,51,-100,-100,-100,0,0,100,0.00,40.00,0,-999,0,0.00
2014-5-23,83,66,50,-100,-100,-100,0,0,100,0.00,40.00,0,-999,0,0.00
2014-5-24,86,69,52,-100,-100,-100,0,0,100,0.00,40.00,0,-999,0,0.00
2014-5-25,87,71,57,-100,-100,-100,0,0,100,0.00,40.00,0,-999,0,0.00
2014-5-26,87,76,68,-100,-100,-100,0,0,100,0.00,40.00,0,-999,0,0.00
2014-5-27,86,76,69,-100,-100,-100,0,0,100,0.00,40.00,0,-999,0,0.00
2014-5-28,83,72,66,-100,-100,-100,0,0,100,0.00,40.00,0,-999,0,0.00
2014-5-29,91,73,58,-100,-100,-100,0,0,100,0.00,40.00,0,-999,0,0.00
2014-5-30,95,76,63,-100,-100,-100,0,0,100,0.00,40.00,0,-999,0,0.00
2014-5-31,94,79,62,-100,-100,-100,0,0,100,0.00,40.00,0,-999,0,0.00
2014-6-1,92,79,73,-100,-100,-100,0,0,100,0.00,40.00,0,-999,0,0.00
2014-6-2,84,77,67,-100,-100,-100,0,0,100,0.00,40.00,0,-999,0,0.00
2014-6-3,84,74,63,-100,-100,-100,0,0,100,0.00,40.00,0,-999,0,0.00
2014-6-4,76,68,64,-100,-100,-100,0,0,100,0.00,40.00,0,-999,0,0.00
2014-6-5,86,71,55,-100,-100,-100,0,0,100,0.00,40.00,0,-999,0,0.00
2014-6-6,92,76,60,-100,-100,-100,0,0,100,0.00,40.00,0,-999,0,0.00
2014-6-7,85,73,64,-100,-100,-100,0,0,100,0.00,40.00,0,-999,0,0.00
2014-6-8,73,66,61,-100,-100,-100,0,0,100,0.00,40.00,0,-999,0,0.00
2014-6-9,87,72,54,-100,-100,-100,0,0,100,0.00,40.00,0,-999,0,0.00
2014-6-10,73,66,60,-100,-100,-100,0,0,100,0.00,40.00,0,-999,0,0.00
2014-6-11,85,68,61,-100,-100,-100,0,0,100,0.00,40.00,0,-999,0,0.00
2014-6-12,76,68,58,-100,-100,-100,0,0,100,0.00,40.00,0,-999,0,0.00
2014-6-13,80,63,49,-100,-100,-100,0,0,100,0.00,40.00,0,-999,0,0.00
2014-6-14,85,71,55,-100,-100,-100,0,0,100,0.00,40.00,0,-999,0,0.00
2014-6-15,87,75,64,-100,-100,-100,0,0,100,0.00,40.00,0,-999,0,0.00
2014-6-16,91,77,64,-100,-100,-100,0,0,100,0.00,40.00,0,-999,0,0.00
2014-6-17,95,83,68,-100,-100,-100,0,0,100,0.00,40.00,0,-999,0,0.00
2014-6-18,91,79,70,-100,-100,-100,0,0,100,0.00,40.00,0,-999,0,0.00
2014-6-19,86,75,67,-100,-100,-100,0,0,100,0.00,40.00,0,-999,0,0.00
2014-6-20,91,77,68,-100,-100,-100,0,0,100,0.00,40.00,0,-999,0,0.00
2014-6-21,88,76,68,-100,-100,-100,0,0,100,0.00,40.00,0,-999,0,0.00
2014-6-22,90,71,66,-100,-100,-100,0,0,100,0.00,40.00,0,-999,0,0.00
2014-6-23,78,73,69,-100,-100,-100,0,0,100,0.00,40.00,0,-999,0,0.00
2014-6-24,84,77,66,-100,-100,-100,0,0,100,0.00,40.00,0,-999,0,0.00
2014-6-25,87,77,65,-100,-100,-100,0,0,100,0.00,40.00,0,-999,0,0.00
2014-6-26,90,74,66,-100,-100,-100,0,0,100,0.00,40.00,0,-999,0,0.00
2014-6-27,91,79,71,-100,-100,-100,0,0,100,0.00,40.00,0,-999,0,0.00
2014-6-28,89,77,71,-100,-100,-100,0,0,100,0.00,40.00,0,-999,0,0.00
2014-6-29,87,77,68,-100,-100,-100,0,0,100,0.00,40.00,0,-999,0,0.00
2014-6-30,88,72,69,-100,-100,-100,0,0,100,0.00,40.00,0,-999,0,0.00
2014-7-1,81,75,64,-100,-100,-100,0,0,100,0.00,40.00,0,-999,0,0.00
2014-7-2,66,63,60,-100,-100,-100,0,0,100,0.00,40.00,0,-999,0,0.00
2014-7-3,82,66,57,-100,-100,-100,0,0,100,0.00,40.00,0,-999,0,0.00
2014-7-4,87,63,54,-100,-100,-100,0,0,100,0.00,40.00,0,-999,0,0.00
2014-7-5,73,67,60,-100,-100,-100,0,0,100,0.00,40.00,0,-999,0,0.00
2014-7-6,90,75,65,-100,-100,-100,0,0,100,0.00,40.00,0,-999,0,0.00
2014-7-7,87,78,72,-100,-100,-100,0,0,100,0.00,40.00,0,-999,0,0.00
2014-7-8,80,74,67,-100,-100,-100,0,0,100,0.00,40.00,0,-999,0,0.00
2014-7-9,78,69,59,-100,0,200,0,0,100,0.00,40.00,0,0,0,0.00
2014-7-10,91,74,64,-100,0,200,0,0,100,0.00,40.00,0,0,0,0.00
2014-7-11,85,75,64,-100,0,200,0,0,100,0.00,40.00,0,0,0,0.00
2014-7-12,87,76,73,-100,0,200,0,0,100,0.00,40.00,0,0,0,0.00
2014-7-13,86,73,65,-100,0,200,0,0,100,0.00,40.00,0,0,0,0.00
2014-7-14,77,69,58,-100,0,200,0,0,100,0.00,40.00,0,0,0,0.00
2014-7-15,68,59,52,-100,0,200,0,0,100,0.00,40.00,0,0,0,0.00
2014-7-16,76,67,52,-100,0,200,0,0,100,0.00,40.00,0,0,0,0.00
2014-7-17,82,70,53,-100,0,200,0,0,100,0.00,40.00,0,0,0,0.00
2014-7-18,87,72,59,-100,0,200,0,0,100,0.00,40.00,0,0,0,0.00
2014-7-19,86,72,61,-100,0,200,0,0,100,0.00,40.00,0,0,0,0.00
2014-7-20,85,74,63,-100,0,200,0,0,100,0.00,40.00,0,0,0,0.00
2014-7-21,90,78,65,-100,0,200,0,0,100,0.00,40.00,0,0,0,0.00
2014-7-22,93,81,73,-100,0,200,0,0,100,0.00,40.00,0,0,0,0.00
2014-7-23,83,74,65,-100,0,200,0,0,100,0.00,40.00,0,0,0,0.00
2014-7-24,85,69,58,-100,0,200,0,0,100,0.00,40.00,0,0,0,0.00
2014-7-25,76,67,61,-100,0,200,0,0,100,0.00,40.00,0,0,0,0.00
2014-7-26,84,76,69,-100,0,200,0,0,100,0.00,40.00,0,0,0,0.00
2014-7-27,76,71,66,-100,0,200,0,0,100,0.00,40.00,0,0,0,0.00
2014-7-28,73,66,58,-100,0,200,0,0,100,0.00,40.00,0,0,0,0.00
2014-7-29,80,65,54,-100,0,200,0,0,100,0.00,40.00,0,0,0,0.00
2014-7-30,80,69,58,-100,0,200,0,0,100,0.00,40.00,0,0,0,0.00
2014-7-31,83,71,58,-100,0,200,0,0,100,0.00,40.00,0,0,0,0.00
2014-8-1,87,74,63,-100,0,200,0,0,100,0.00,40.00,0,0,0,0.00
2014-8-2,90,68,59,-100,0,200,0,0,100,0.00,40.00,0,0,0,0.00
2014-8-3,88,75,60,-100,0,200,0,0,100,0.00,40.00,0,0,0,0.00
2014-8-4,91,75,65,-100,0,200,0,0,100,0.00,40.00,0,0,0,0.00
2014-8-5,78,72,67,-100,0,200,0,0,100,0.00,40.00,0,0,0,0.00
2014-8-6,84,70,61,-100,0,200,0,0,100,0.00,40.00,0,0,0,0.00
2014-8-7,81,78,74,-100,0,200,0,0,100,0.00,40.00,0,0,0,0.00
2014-8-8,87,76,65,-100,0,200,0,0,100,0.00,40.00,0,0,0,0.00
2014-8-9,91,73,61,-100,0,200,0,0,100,0.00,40.00,0,0,0,0.00
2014-8-10,89,74,58,-100,0,200,0,0,100,0.00,40.00,0,0,0,0.00
2014-8-11,83,73,63,-100,0,200,0,0,100,0.00,40.00,0,0,0,0.00
2014-8-12,77,68,58,-100,0,200,0,0,100,0.00,40.00,0,0,0,0.00
2014-8-13,84,71,52,-100,0,200,0,0,100,0.00,40.00,0,0,0,0.00
2014-8-14,84,68,58,-100,0,200,0,0,100,0.00,40.00,0,0,0,0.00
2014-8-15,78,64,56,-100,0,200,0,0,100,0.00,40.00,0,0,0,0.00
2014-8-16,83,72,62,-100,0,200,0,0,100,0.00,40.00,0,0,0,0.00
2014-8-17,83,71,63,-100,0,200,0,0,100,0.00,40.00,0,0,0,0.00
2014-8-18,90,74,69,-100,0,200,0,0,100,0.00,40.00,0,0,0,0.00
2014-8-19,87,78,67,-100,0,200,0,0,100,0.00,40.00,0,0,0,0.00
2014-8-20,81,72,62,-100,0,200,0,0,100,0.00,40.00,0,0,0,0.00
2014-8-21,83,76,73,-100,0,200,0,0,100,0.00,40.00,0,0,0,0.00
2014-8-22,88,80,74,-100,0,200,0,0,100,0.00,40.00,0,0,0,0.00
2014-8-23,83,77,73,-100,0,200,0,0,100,0.00,40.00,0,0,0,0.00
2014-8-24,97,82,70,-100,0,200,0,0,100,0.00,40.00,0,0,0,0.00
2014-8-25,87,80,74,-100,0,200,0,0,100,0.00,40.00,0,0,0,0.00
2014-8-26,83,73,69,-100,0,200,0,0,100,0.00,40.00,0,0,0,0.00
2014-8-27,82,73,66,-100,0,200,0,0,100,0.00,40.00,0,0,0,0.00
2014-8-28,76,69,65,-100,0,200,0,0,100,0.00,40.00,0,0,0,0.00
2014-8-29,92,79,68,-100,0,200,0,0,100,0.00,40.00,0,0,0,0.00
2014-8-30,83,75,71,-100,0,200,0,0,100,0.00,40.00,0,0,0,0.00
2014-8-31,91,77,62,-100,0,200,0,0,100,0.00,40.00,0,0,0,0.00
2014-9-1,84,75,66,-100,0,200,0,0,100,0.00,40.00,0,0,0,0.00
2014-9-2,80,70,61,-100,0,200,0,0,100,0.00,40.00,0,0,0,0.00
2014-9-3,90,75,58,-100,0,200,0,0,100,0.00,40.00,0,0,0,0.00
2014-9-4,91,80,70,-100,0,200,0,0,100,0.00,40.00,0,0,0,0.00
2014-9-5,80,74,59,-100,0,200,0,0,100,0.00,40.00,0,0,0,0.00
2014-9-6,76,62,53,-100,0,200,0,0,100,0.00,40.00,0,0,0,0.00
2014-9-7,83,63,52,-100,0,200,0,0,100,0.00,40.00,0,0,0,0.00
2014-9-8,79,65,56,-100,0,200,0,0,100,0.00,40.00,0,0,0,0.00
2014-9-9,83,71,63,-100,0,200,0,0,100,0.00,40.00,0,0,0,0.00
2014-9-10,77,69,57,-100,0,200,0,0,100,0.00,40.00,0,0,0,0.00
2014-9-11,56,52,47,-100,0,200,0,0,100,0.00,40.00,0,0,0,0.00
2014-9-12,54,50,42,-100,0,200,0,0,100,0.00,40.00,0,0,0,0.00
2014-9-13,64,45,36,-100,0,200,0,0,100,0.00,40.00,0,0,0,0.00
2014-9-14,71,58,38,-100,0,200,0,0,100,0.00,40.00,0,0,0,0.00
2014-9-15,67,54,46,-100,0,200,0,0,100,0.00,40.00,0,0,0,0.00
2014-9-16,72,56,40,-100,0,200,0,0,100,0.00,40.00,0,0,0,0.00
2014-9-17,75,55,43,-100,0,200,0,0,100,0.00,40.00,0,0,0,0.00
2014-9-18,79,60,46,-100,0,200,0,0,100,0.00,40.00,0,0,0,0.00
2014-9-19,80,66,53,-100,0,200,0,0,100,0.00,40.00,0,0,0,0.00
2014-9-20,80,70,64,-100,0,200,0,0,100,0.00,40.00,0,0,0,0.00
2014-9-21,68,60,47,-100,0,200,0,0,100,0.00,40.00,0,0,0,0.00
2014-9-22,75,58,39,-100,0,200,0,0,100,0.00,40.00,0,0,0,0.00
2014-9-23,79,58,44,-100,0,200,0,0,100,0.00,40.00,0,0,0,0.00
2014-9-24,76,63,55,-100,0,200,0,0,100,0.00,40.00,0,0,0,0.00
2014-9-25,84,66,56,-100,0,200,0,0,100,0.00,40.00,0,0,0,0.00
2014-9-26,87,68,54,-100,0,200,0,0,100,0.00,40.00,0,0,0,0.00
2014-9-27,84,68,58,-100,0,200,0,0,100,0.00,40.00,0,0,0,0.00
2014-9-28,88,71,55,-100,0,200,0,0,100,0.00,40.00,0,0,0,0.00
2014-9-29,86,68,54,-100,0,200,0,0,100,0.00,40.00,0,0,0,0.00
2014-9-30,65,57,53,-100,0,200,0,0,100,0.00,40.00,0,0,0,0.00
2014-10-1,77,64,51,-100,0,200,0,0,100,0.00,40.00,0,0,0,0.00
2014-10-2,73,67,64,-100,0,200,0,0,100,0.00,40.00,0,0,0,0.00
2014-10-3,63,52,44,-100,0,200,0,0,100,0.00,40.00,0,0,0,0.00
2014-10-4,52,44,37,-100,0,200,0,0,100,0.00,40.00,0,0,0,0.00
2014-10-5,58,49,36,-100,0,200,0,0,100,0.00,40.00,0,0,0,0.00
2014-10-6,61,52,46,-100,0,200,0,0,100,0.00,40.00,0,0,0,0.00
2014-10-7,67,55,48,-100,0,200,0,0,100,0.00,40.00,0,0,0,0.00
2014-10-8,68,55,40,-100,0,200,0,0,100,0.00,40.00,0,0,0,0.00
2014-10-9,66,56,45,-100,0,200,0,0,100,0.00,40.00,0,0,0,0.00
2014-10-10,61,49,35,-100,0,200,0,0,100,0.00,40.00,0,0,0,0.00
2014-10-11,65,43,32,-100,0,200,0,0,100,0.00,40.00,0,0,0,0.00
2014-10-12,62,46,36,-100,0,200,0,0,100,0.00,40.00,0,0,0,0.00
2014-10-13,65,60,55,-100,0,200,0,0,100,0.00,40.00,0,0,0,0.00
2014-10-14,64,59,52,-100,0,200,0,0,100,0.00,40.00,0,0,0,0.00
2014-10-15,56,53,47,-100,0,200,0,0,100,0.00,40.00,0,0,0,0.00
2014-10-16,71,54,44,-100,0,200,0,0,100,0.00,40.00,0,0,0,0.00
2014-10-17,57,54,49,-100,0,200,0,0,100,0.00,40.00,0,0,0,0.00
2014-10-18,55,49,40,-100,0,200,0,0,100,0.00,40.00,0,0,0,0.00
2014-10-19,62,48,31,-100,0,200,0,0,100,0.00,40.00,0,0,0,0.00
2014-10-20,67,54,44,-100,0,200,0,0,100,0.00,40.00,0,0,0,0.00
2014-10-21,62,48,36,-100,0,200,0,0,100,0.00,40.00,0,0,0,0.00
2014-10-22,63,44,32,-100,0,200,0,0,100,0.00,40.00,0,0,0,0.00
2014-10-23,62,48,39,-100,0,200,0,0,100,0.00,40.00,0,0,0,0.00
2014-10-24,72,56,41,-100,0,200,0,0,100,0.00,40.00,0,0,0,0.00
2014-10-25,72,60,46,-100,0,200,0,0,100,0.00,40.00,0,0,0,0.00
2014-10-26,71,53,34,-100,0,200,0,0,100,0.00,40.00,0,0,0,0.00
2014-10-27,80,66,58,-100,0,200,0,0,100,0.00,40.00,0,0,0,0.00
2014-10-28,61,52,47,-100,0,200,0,0,100,0.00,40.00,0,0,0,0.00
2014-10-29,51,44,32,-100,0,200,0,0,100,0.00,40.00,0,0,0,0.00
2014-10-30,54,42,30,-100,0,200,0,0,100,0.00,40.00,0,0,0,0.00
2014-10-31,47,36,24,-100,0,200,0,0,100,0.00,40.00,0,0,0,0.00
2014-11-1,49,32,20,-100,0,200,0,0,100,0.00,40.00,0,0,0,0.00
2014-11-2,54,43,28,-100,0,200,0,0,100,0.00,40.00,0,0,0,0.00
2014-11-3,67,58,42,-100,0,200,0,0,100,0.00,40.00,0,0,0,0.00
2014-11-4,60,49,43,-100,0,200,0,0,100,0.00,40.00,0,0,0,0.00
2014-11-5,61,47,35,-100,0,200,0,0,100,0.00,40.00,0,0,0,0.00
2014-11-6,50,41,26,-100,0,200,0,0,100,0.00,40.00,0,0,0,0.00
2014-11-7,47,36,23,-100,0,200,0,0,100,0.00,40.00,0,0,0,0.00
2014-11-8,48,42,36,-100,0,200,0,0,100,0.00,40.00,0,0,0,0.00
2014-11-9,35,34,32,-100,0,200,0,0,100,0.00,40.00,0,0,0,0.00
2014-11-10,68,58,46,-100,0,200,0,0,100,0.00,40.00,0,0,0,0.00
2014-11-11,50,35,28,-100,0,200,0,0,100,0.00,40.00,0,0,0,0.00
2014-11-12,27,25,24,-100,0,200,0,0,100,0.00,40.00,0,0,0,0.00
2014-11-13,29,25,21,-100,0,200,0,0,100,0.00,40.00,0,0,0,0.00
2014-11-14,30,20,14,-100,0,200,0,0,100,0.00,40.00,0,0,0,0.00
2014-11-15,32,23,14,-100,0,200,0,0,100,0.00,40.00,0,0,0,0.00
2014-11-16,29,22,11,-100,0,200,0,0,100,0.00,40.00,0,0,0,0.00
2014-11-17,16,12,9,-100,0,200,0,0,100,0.00,40.00,0,0,0,0.00
2014-11-18,20,13,7,-100,0,200,0,0,100,0.00,40.00,0,0,0,0.00
2014-11-19,28,24,20,-100,0,200,0,0,100,0.00,40.00,0,0,0,0.00
2014-11-20,26,19,10,-100,0,200,0,0,100,0.00,40.00,0,0,0,0.00
2014-11-21,38,22,6,-100,0,200,0,0,100,0.00,40.00,0,0,0,0.00
2014-11-22,54,47,34,-100,0,200,0,0,100,0.00,40.00,0,0,0,0.00
2014-11-23,52,51,49,-100,0,200,0,0,100,0.00,40.00,0,0,0,0.00
2014-11-24,43,30,21,-100,0,200,0,0,100,0.00,40.00,0,0,0,0.00
2014-11-25,25,19,15,-100,0,200,0,0,100,0.00,40.00,0,0,0,0.00
2014-11-26,30,23,17,-100,0,200,0,0,100,0.00,40.00,0,0,0,0.00
2014-11-27,25,17,10,-100,0,200,0,0,100,0.00,40.00,0,0,0,0.00
2014-11-28,34,25,13,-100,0,200,0,0,100,0.00,40.00,0,0,0,0.00
2014-11-29,51,42,32,-100,0,200,0,0,100,0.00,40.00,0,0,0,0.00
2014-11-30,40,31,22,-100,0,200,0,0,100,0.00,40.00,0,0,0,0.00
2014-12-1,21,18,14,-100,0,200,0,0,100,0.00,40.00,0,0,0,0.00
2014-12-2,33,23,14,-100,0,200,0,0,100,0.00,40.00,0,0,0,0.00
2014-12-3,34,26,21,-100,0,200,0,0,100,0.00,40.00,0,0,0,0.00
2014-12-4,35,28,21,-100,0,200,0,0,100,0.00,40.00,0,0,0,0.00
2014-12-5,40,35,32,-100,0,200,0,0,100,0.00,40.00,0,0,0,0.00
2014-12-6,42,34,28,-100,0,200,0,0,100,0.00,40.00,0,0,0,0.00
2014-12-7,37,32,25,-100,0,200,0,0,100,0.00,40.00,0,0,0,0.00
2014-12-8,40,35,32,-100,0,200,0,0,100,0.00,40.00,0,0,0,0.00
2014-12-9,37,32,29,-100,0,200,0,0,100,0.00,40.00,0,0,0,0.00
2014-12-10,35,32,28,-100,0,200,0,0,100,0.00,40.00,0,0,0,0.00
2014-12-11,34,28,21,-100,0,200,0,0,100,0.00,40.00,0,0,0,0.00
2014-12-12,38,34,30,-100,0,200,0,0,100,0.00,40.00,0,0,0,0.00
2014-12-13,49,41,27,-100,0,200,0,0,100,0.00,40.00,0,0,0,0.00
2014-12-14,53,47,40,-100,0,200,0,0,100,0.00,40.00,0,0,0,0.00
2014-12-15,50,48,46,-100,0,200,0,0,100,0.00,40.00,0,0,0,0.00
2014-12-16,47,37,23,-100,0,200,0,0,100,0.00,40.00,0,0,0,0.00
2014-12-17,26,23,18,-100,0,200,0,0,100,0.00,40.00,0,0,0,0.00
2014-12-18,26,20,15,-100,0,200,0,0,100,0.00,40.00,0,0,0,0.00
2014-12-19,31,23,14,-100,0,200,0,0,100,0.00,40.00,0,0,0,0.00
2014-12-20,35,32,29,-100,0,200,0,0,100,0.00,40.00,0,0,0,0.00
2014-12-21,40,36,34,-100,0,200,0,0,100,0.00,40.00,0,0,0,0.00
2014-12-22,38,36,36,-100,0,200,0,0,100,0.00,40.00,0,0,0,0.00
2014-12-23,44,42,39,-100,0,200,0,0,100,0.00,40.00,0,0,0,0.00
2014-12-24,38,36,35,-100,0,200,0,0,100,0.00,40.00,0,0,0,0.00
2014-12-25,47,39,33,-100,0,200,0,0,100,0.00,40.00,0,0,0,0.00
2014-12-26,53,45,40,-100,0,200,0,0,100,0.00,40.00,0,0,0,0.00
2014-12-27,49,36,25,-100,0,200,0,0,100,0.00,40.00,0,0,0,0.00
2014-12-28,34,25,16,-100,0,200,0,0,100,0.00,40.00,0,0,0,0.00
2014-12-29,30,27,20,-100,0,200,0,0,100,0.00,40.00,0,0,0,0.00
2014-12-30,16,11,6,-100,0,200,0,0,100,0.00,40.00,0,0,0,0.00
2014-12-31,20,10,2,-100,0,200,0,0,100,0.00,40.00,0,0,0,0.00
2015-1-1,35,23,14,-100,0,200,0,0,100,0.00,40.00,0,0,0,0.00
2015-1-2,36,24,14,-100,0,200,0,0,100,0.00,40.00,0,0,0,0.00